Time;durP1;ratioP1;P1;durP2;ratioP2;P2;SDS_P1;SDS_P2;PMS_P1;PMS_P2;Temp;Humidity;BMP_temperature;BMP_pressure;BME280_temperature;BME280_humidity;BME280_pressure;Samples;Min_cycle;Max_cycle;Signal;HPM_P1;HPM_P2
2022/04/10 00:01:23;;;;;;;2.90;1.90;;;;;;;5.24;65.79;95427.75;4347084;32;20454;-57
2022/04/10 00:03:48;;;;;;;2.73;1.90;;;;;;;5.25;65.45;95430.13;4348211;32;20277;-55
2022/04/10 00:06:15;;;;;;;3.37;2.23;;;;;;;5.10;65.56;95422.16;4361856;32;20304;-54
2022/04/10 00:08:45;;;;;;;3.10;1.87;;;;;;;5.25;65.20;95424.88;4345186;32;20296;-57
2022/04/10 00:11:17;;;;;;;2.67;1.93;;;;;;;5.08;65.73;95419.78;4340799;32;20185;-55
2022/04/10 00:13:43;;;;;;;2.23;1.97;;;;;;;4.90;66.15;95428.13;4333560;32;20377;-57
2022/04/10 00:16:16;;;;;;;3.67;2.40;;;;;;;4.94;65.96;95418.69;4338137;32;20324;-55
2022/04/10 00:18:42;;;;;;;2.37;2.00;;;;;;;4.87;66.92;95427.84;4359243;32;20204;-56
2022/04/10 00:21:27;;;;;;;2.97;2.60;;;;;;;4.81;66.91;95424.38;4360576;32;20278;-54
2022/04/10 00:23:53;;;;;;;2.50;2.10;;;;;;;4.76;67.04;95424.38;4332356;32;20396;-56
2022/04/10 00:26:23;;;;;;;2.00;1.90;;;;;;;4.84;66.92;95424.66;4342660;32;20282;-56
2022/04/10 00:28:53;;;;;;;2.93;1.80;;;;;;;4.72;67.22;95421.44;4332087;32;20294;-57
2022/04/10 00:31:42;;;;;;;3.03;2.43;;;;;;;4.68;67.33;95420.37;4342152;32;20360;-55
2022/04/10 00:34:09;;;;;;;2.40;2.00;;;;;;;4.48;68.06;95420.25;4330419;32;20310;-54
2022/04/10 00:36:34;;;;;;;2.63;2.40;;;;;;;4.63;67.80;95428.22;4357694;32;20281;-56
2022/04/10 00:39:00;;;;;;;2.63;2.47;;;;;;;4.40;68.31;95431.19;4359559;32;20304;-57
2022/04/10 00:41:30;;;;;;;2.40;2.20;;;;;;;4.45;68.52;95426.78;4352884;32;20277;-56
2022/04/10 00:44:06;;;;;;;2.30;2.10;;;;;;;4.40;68.69;95423.31;4344391;32;20286;-56
2022/04/10 00:46:34;;;;;;;2.40;2.20;;;;;;;4.38;68.74;95435.91;4302198;33;20291;-57
2022/04/10 00:49:00;;;;;;;2.83;2.53;;;;;;;4.43;68.34;95433.31;4324500;32;20336;-57
2022/04/10 00:51:46;;;;;;;2.87;2.37;;;;;;;4.48;68.35;95430.75;4321707;32;20397;-54
2022/04/10 00:54:19;;;;;;;4.30;2.60;;;;;;;4.35;68.62;95439.84;4309260;32;20285;-55
2022/04/10 00:56:52;;;;;;;3.53;2.50;;;;;;;4.39;68.61;95434.87;4326511;32;20310;-56
2022/04/10 00:59:21;;;;;;;4.13;2.37;;;;;;;4.30;69.02;95431.12;4324344;32;20278;-51
2022/04/10 01:01:50;;;;;;;3.07;2.40;;;;;;;4.34;69.31;95437.47;4334399;32;20287;-56
2022/04/10 01:04:16;;;;;;;3.77;2.80;;;;;;;4.26;69.58;95437.91;4308152;33;20294;-53
2022/04/10 01:06:45;;;;;;;5.93;3.00;;;;;;;4.41;69.18;95430.16;4347669;32;20285;-55
2022/04/10 01:09:20;;;;;;;4.63;2.80;;;;;;;4.40;69.03;95437.25;4318956;32;20285;-56
2022/04/10 01:11:46;;;;;;;2.90;2.60;;;;;;;4.13;70.10;95436.50;4339101;32;20293;-56
2022/04/10 01:14:13;;;;;;;3.43;2.30;;;;;;;4.17;70.60;95436.78;4329650;32;20354;-54
2022/04/10 01:16:42;;;;;;;2.50;2.30;;;;;;;4.02;71.14;95432.19;4332146;32;20220;-54
2022/04/10 01:19:11;;;;;;;3.40;2.87;;;;;;;4.21;70.66;95432.62;4326998;32;20296;-56
2022/04/10 01:21:46;;;;;;;4.10;2.73;;;;;;;4.24;70.86;95435.53;4336341;32;20324;-58
2022/04/10 01:24:12;;;;;;;3.70;2.23;;;;;;;4.18;70.99;95439.16;4326600;32;20287;-52
2022/04/10 01:26:38;;;;;;;3.30;2.47;;;;;;;4.16;71.22;95443.09;4320355;32;20291;-55
2022/04/10 01:29:26;;;;;;;4.00;2.83;;;;;;;4.12;71.73;95440.97;4318306;32;20310;-55
2022/04/10 01:31:52;;;;;;;4.30;2.40;;;;;;;4.18;71.24;95441.00;4343527;32;20247;-55
2022/04/10 01:34:18;;;;;;;3.03;2.60;;;;;;;4.03;71.77;95439.81;4314394;32;20310;-57
2022/04/10 01:36:44;;;;;;;11.13;9.70;;;;;;;4.21;71.61;95451.00;4313435;32;20241;-56
2022/04/10 01:39:15;;;;;;;11.10;10.00;;;;;;;4.31;71.26;95445.84;4344928;32;20285;-54
2022/04/10 01:41:47;;;;;;;5.30;4.80;;;;;;;4.33;71.44;95443.75;4345947;32;20303;-55
2022/04/10 01:44:18;;;;;;;3.77;3.43;;;;;;;4.19;71.51;95447.81;4347654;32;20333;-56
2022/04/10 01:46:45;;;;;;;3.70;2.87;;;;;;;4.07;72.64;95443.53;4353702;32;20340;-55
2022/04/10 01:49:11;;;;;;;2.40;2.20;;;;;;;4.12;72.54;95446.22;4324029;32;20282;-55
2022/04/10 01:51:38;;;;;;;3.23;2.40;;;;;;;4.08;73.01;95452.22;4320339;32;20298;-53
2022/04/10 01:54:05;;;;;;;3.80;3.10;;;;;;;4.19;72.61;95445.19;4344487;32;20316;-55
2022/04/10 01:56:31;;;;;;;3.13;2.83;;;;;;;4.16;72.95;95443.09;4336161;32;20331;-56
2022/04/10 01:58:58;;;;;;;3.63;2.73;;;;;;;4.05;73.62;95444.81;4345242;32;20293;-56
2022/04/10 02:01:32;;;;;;;4.07;2.90;;;;;;;4.13;73.45;95445.19;4349827;32;20333;-52
2022/04/10 02:03:59;;;;;;;3.73;2.30;;;;;;;3.93;74.13;95446.81;4360270;32;20288;-53
2022/04/10 02:06:26;;;;;;;3.13;2.53;;;;;;;4.01;74.11;95457.66;4357123;32;20285;-54
2022/04/10 02:08:54;;;;;;;2.43;2.30;;;;;;;4.03;74.64;95450.31;4360690;32;20289;-58
2022/04/10 02:11:35;;;;;;;2.70;2.47;;;;;;;4.02;74.35;95459.22;4358569;32;20319;-56
2022/04/10 02:14:02;;;;;;;2.93;2.67;;;;;;;4.12;74.27;95458.56;4333436;32;20304;-55
2022/04/10 02:16:28;;;;;;;5.03;2.43;;;;;;;4.11;74.54;95451.72;4346413;32;20319;-56
2022/04/10 02:18:55;;;;;;;3.00;2.43;;;;;;;4.03;74.79;95455.56;4362269;32;20323;-56
2022/04/10 02:21:28;;;;;;;3.53;2.90;;;;;;;3.91;75.36;95462.81;4352373;32;20344;-56
2022/04/10 02:23:55;;;;;;;2.20;2.10;;;;;;;3.93;75.80;95466.00;4342205;32;20419;-57
2022/04/10 02:26:30;;;;;;;2.60;2.30;;;;;;;4.09;75.52;95467.72;4360021;32;20331;-57
2022/04/10 02:29:00;;;;;;;3.20;2.90;;;;;;;4.30;74.78;95468.69;4359579;32;20285;-56
2022/04/10 02:31:30;;;;;;;2.87;2.67;;;;;;;4.09;76.04;95470.34;4331606;32;20299;-56
2022/04/10 02:33:56;;;;;;;3.47;2.50;;;;;;;4.11;76.70;95473.50;4304034;32;20364;-53
2022/04/10 02:36:34;;;;;;;3.63;2.43;;;;;;;4.12;77.04;95466.44;4332650;32;20346;-58
2022/04/10 02:39:00;;;;;;;2.77;2.53;;;;;;;4.07;77.52;95476.88;4349365;32;20293;-56
2022/04/10 02:41:30;;;;;;;2.20;2.00;;;;;;;3.87;78.05;95466.97;4340247;32;20404;-54
2022/04/10 02:43:56;;;;;;;3.30;2.53;;;;;;;4.10;77.55;95471.91;4335278;32;20290;-53
2022/04/10 02:46:32;;;;;;;2.63;2.40;;;;;;;4.04;77.62;95472.91;4366889;32;20281;-56
2022/04/10 02:48:59;;;;;;;2.27;2.17;;;;;;;4.13;77.59;95473.25;4319181;32;20331;-53
2022/04/10 02:51:24;;;;;;;2.60;2.30;;;;;;;4.00;78.28;95479.69;4356419;32;20298;-53
2022/04/10 02:53:49;;;;;;;3.40;2.53;;;;;;;3.99;78.49;95478.09;4337599;32;20300;-57
2022/04/10 02:56:21;;;;;;;2.70;2.07;;;;;;;3.86;79.35;95478.50;4342786;32;20193;-56
2022/04/10 02:58:48;;;;;;;2.20;2.10;;;;;;;3.72;79.84;95474.69;4339324;32;20196;-58
2022/04/10 03:01:23;;;;;;;2.37;2.13;;;;;;;3.86;79.72;95475.88;4353057;32;20364;-57
2022/04/10 03:03:48;;;;;;;2.53;1.93;;;;;;;3.83;80.04;95481.63;4368017;32;20296;-56
2022/04/10 03:06:27;;;;;;;3.17;2.37;;;;;;;4.05;79.54;95479.75;4336703;32;20324;-55
2022/04/10 03:08:54;;;;;;;2.13;1.87;;;;;;;4.18;79.11;95485.62;4338684;32;20327;-56
2022/04/10 03:11:26;;;;;;;2.17;1.57;;;;;;;4.16;79.31;95471.97;4354136;32;20298;-56
2022/04/10 03:13:52;;;;;;;3.30;2.17;;;;;;;4.14;79.42;95487.97;4317200;33;20286;-56
2022/04/10 03:16:35;;;;;;;2.93;2.20;;;;;;;4.21;79.38;95487.75;4322571;32;20334;-56
2022/04/10 03:19:03;;;;;;;2.10;2.00;;;;;;;4.17;80.04;95497.16;4329835;32;20231;-55
2022/04/10 03:21:40;;;;;;;2.00;1.90;;;;;;;4.22;80.56;95489.34;4330121;32;20288;-56
2022/04/10 03:24:08;;;;;;;2.23;1.97;;;;;;;3.96;82.32;95489.09;4325650;32;20290;-52
2022/04/10 03:26:37;;;;;;;2.27;2.07;;;;;;;3.82;83.29;95494.97;4328576;32;20352;-56
2022/04/10 03:29:03;;;;;;;3.67;2.33;;;;;;;3.77;83.80;95487.84;4360262;32;20304;-57
2022/04/10 03:31:29;;;;;;;2.50;2.30;;;;;;;3.82;84.72;95490.53;4354142;32;20300;-56
2022/04/10 03:33:56;;;;;;;3.10;2.30;;;;;;;3.96;83.40;95488.28;4341593;32;20205;-56
2022/04/10 03:36:30;;;;;;;2.20;2.10;;;;;;;3.84;83.84;95487.66;4336536;32;20317;-54
2022/04/10 03:38:57;;;;;;;2.40;2.20;;;;;;;3.80;84.54;95485.53;4337298;32;20379;-53
2022/04/10 03:41:24;;;;;;;2.77;2.57;;;;;;;3.85;84.65;95484.78;4332166;32;20353;-55
2022/04/10 03:43:51;;;;;;;3.03;2.67;;;;;;;3.94;83.83;95493.81;4326501;32;20296;-56
2022/04/10 03:46:19;;;;;;;2.47;2.27;;;;;;;3.82;84.10;95490.53;4321903;32;20338;-53
2022/04/10 03:48:46;;;;;;;4.37;2.37;;;;;;;3.79;84.63;95494.44;4330437;32;20304;-55
2022/04/10 03:51:28;;;;;;;3.53;3.10;;;;;;;3.94;84.22;95496.44;4328965;32;20305;-53
2022/04/10 03:53:54;;;;;;;3.03;2.73;;;;;;;4.03;84.21;95496.78;4334654;32;20364;-54
2022/04/10 03:56:24;;;;;;;3.13;2.77;;;;;;;4.06;83.79;95494.44;4348463;32;20278;-56
2022/04/10 03:58:50;;;;;;;2.93;2.73;;;;;;;4.00;83.97;95498.06;4344754;32;20297;-55
2022/04/10 04:01:25;;;;;;;2.90;2.70;;;;;;;3.98;84.14;95494.09;4336242;32;20294;-57
2022/04/10 04:03:50;;;;;;;4.83;2.80;;;;;;;3.84;84.71;95506.81;4328353;32;20288;-55
2022/04/10 04:06:19;;;;;;;3.27;2.97;;;;;;;4.00;84.35;95503.31;4347190;32;20290;-55
2022/04/10 04:08:45;;;;;;;4.40;2.77;;;;;;;3.84;84.51;95503.41;4358180;32;20197;-54
2022/04/10 04:11:40;;;;;;;3.10;2.90;;;;;;;3.86;84.66;95506.56;4350016;32;20285;-55
2022/04/10 04:14:07;;;;;;;2.80;2.60;;;;;;;3.86;84.06;95507.38;4342109;32;20292;-57
2022/04/10 04:16:34;;;;;;;3.33;3.03;;;;;;;3.88;83.88;95507.91;4331576;32;20274;-56
2022/04/10 04:19:02;;;;;;;3.83;3.60;;;;;;;3.98;83.74;95508.00;4333658;32;20309;-57
2022/04/10 04:21:28;;;;;;;2.90;2.70;;;;;;;3.99;83.03;95517.47;4336387;32;20285;-55
2022/04/10 04:23:57;;;;;;;3.10;2.80;;;;;;;3.87;83.24;95519.44;4356149;32;20383;-56
2022/04/10 04:26:37;;;;;;;3.00;2.80;;;;;;;3.91;83.60;95515.28;4350368;32;20203;-56
2022/04/10 04:29:04;;;;;;;3.10;2.67;;;;;;;4.16;82.34;95521.84;4320669;32;20294;-55
2022/04/10 04:31:30;;;;;;;3.10;2.80;;;;;;;4.12;82.42;95524.97;4315795;32;20353;-57
2022/04/10 04:33:56;;;;;;;3.27;2.60;;;;;;;4.27;81.43;95524.31;4321300;32;20372;-55
2022/04/10 04:36:36;;;;;;;3.27;2.63;;;;;;;4.17;82.25;95520.78;4335531;32;20207;-57
2022/04/10 04:39:03;;;;;;;4.50;3.17;;;;;;;4.13;81.69;95523.94;4321609;32;20289;-56
2022/04/10 04:41:29;;;;;;;3.57;2.60;;;;;;;4.18;81.67;95530.25;4358402;32;20285;-56
2022/04/10 04:43:55;;;;;;;2.60;2.50;;;;;;;4.31;80.98;95529.88;4348671;32;20296;-54
2022/04/10 04:46:24;;;;;;;3.67;2.57;;;;;;;3.94;82.26;95532.38;4336653;32;20197;-56
2022/04/10 04:48:50;;;;;;;3.50;2.30;;;;;;;4.22;81.86;95531.34;4332289;32;20299;-55
2022/04/10 04:51:34;;;;;;;3.40;3.20;;;;;;;4.13;82.00;95538.88;4331219;32;20323;-56
2022/04/10 04:54:02;;;;;;;3.40;2.97;;;;;;;4.14;81.79;95538.62;4337663;32;20290;-56
2022/04/10 04:56:37;;;;;;;3.00;2.80;;;;;;;4.16;81.40;95538.38;4346856;32;20308;-56
2022/04/10 04:59:09;;;;;;;3.20;2.90;;;;;;;4.25;81.85;95541.34;4327357;32;20288;-57
2022/04/10 05:01:40;;;;;;;2.70;2.53;;;;;;;4.40;80.73;95538.88;4354360;32;20316;-54
2022/04/10 05:04:06;;;;;;;2.80;2.60;;;;;;;4.15;81.66;95547.31;4345913;32;20289;-57
2022/04/10 05:06:32;;;;;;;6.47;5.97;;;;;;;4.04;81.97;95551.66;4347268;32;20352;-54
2022/04/10 05:08:57;;;;;;;5.37;4.90;;;;;;;4.07;82.42;95556.41;4361005;32;20207;-53
2022/04/10 05:11:26;;;;;;;4.30;4.00;;;;;;;4.14;82.17;95558.84;4358295;32;20309;-55
2022/04/10 05:13:52;;;;;;;3.63;3.40;;;;;;;4.05;82.59;95563.72;4348098;32;20248;-55
2022/04/10 05:16:35;;;;;;;3.63;3.27;;;;;;;4.21;82.39;95563.88;4338121;32;20316;-55
2022/04/10 05:19:10;;;;;;;3.03;2.70;;;;;;;4.23;82.32;95574.94;4334727;32;20340;-56
2022/04/10 05:21:37;;;;;;;3.40;3.10;;;;;;;4.33;81.88;95583.72;4337811;32;20276;-62
2022/04/10 05:24:02;;;;;;;3.83;2.80;;;;;;;4.14;82.81;95577.22;4340807;32;20312;-53
2022/04/10 05:26:36;;;;;;;3.10;2.90;;;;;;;4.15;82.65;95581.44;4358102;32;20340;-54
2022/04/10 05:29:04;;;;;;;3.57;3.20;;;;;;;3.97;83.32;95585.16;4361651;32;20205;-55
2022/04/10 05:31:30;;;;;;;5.77;3.43;;;;;;;4.20;82.46;95586.72;4339110;32;20289;-53
2022/04/10 05:33:57;;;;;;;3.30;3.00;;;;;;;4.18;82.86;95582.75;4328759;32;20367;-55
2022/04/10 05:36:26;;;;;;;3.43;3.10;;;;;;;4.17;82.54;95591.66;4333982;32;20217;-55
2022/04/10 05:38:51;;;;;;;3.40;3.10;;;;;;;4.36;82.42;95590.31;4351523;32;20285;-56
2022/04/10 05:41:23;;;;;;;4.10;3.10;;;;;;;4.39;81.76;95597.69;4313934;32;20336;-55
2022/04/10 05:43:50;;;;;;;3.30;3.10;;;;;;;4.44;81.78;95597.75;4352022;32;20189;-55
2022/04/10 05:46:38;;;;;;;5.83;2.90;;;;;;;4.40;81.61;95596.63;4325512;32;20277;-56
2022/04/10 05:49:08;;;;;;;3.47;3.17;;;;;;;4.36;81.63;95601.63;4354444;32;20311;-57
2022/04/10 05:51:35;;;;;;;3.47;3.17;;;;;;;4.62;81.03;95609.72;4356096;32;20300;-56
2022/04/10 05:54:00;;;;;;;4.43;3.53;;;;;;;4.49;81.00;95605.69;4346972;32;20285;-56
2022/04/10 05:56:27;;;;;;;3.83;3.53;;;;;;;4.62;80.38;95605.28;4350560;32;20380;-56
2022/04/10 05:58:53;;;;;;;3.47;3.27;;;;;;;4.51;81.08;95608.84;4337685;32;20211;-54
2022/04/10 06:01:27;;;;;;;4.87;3.27;;;;;;;4.43;81.37;95617.97;4330876;32;20285;-54
2022/04/10 06:03:54;;;;;;;3.47;3.20;;;;;;;4.51;81.03;95621.19;4333320;32;20426;-56
2022/04/10 06:06:34;;;;;;;3.27;3.07;;;;;;;4.60;81.02;95627.56;4298781;32;20298;-56
2022/04/10 06:08:59;;;;;;;3.47;3.17;;;;;;;4.48;81.17;95627.72;4344417;32;20308;-54
2022/04/10 06:11:25;;;;;;;3.93;3.40;;;;;;;4.64;80.34;95629.47;4350385;32;20285;-56
2022/04/10 06:13:51;;;;;;;3.43;3.20;;;;;;;4.63;79.80;95627.06;4325772;32;20193;-56
2022/04/10 06:16:23;;;;;;;3.53;3.30;;;;;;;4.63;80.43;95633.13;4338279;32;20247;-57
2022/04/10 06:18:49;;;;;;;4.57;3.63;;;;;;;4.71;80.02;95637.94;4347680;32;20284;-54
2022/04/10 06:21:26;;;;;;;3.57;3.37;;;;;;;4.83;78.82;95643.03;4325888;32;20303;-56
2022/04/10 06:23:52;;;;;;;3.83;3.53;;;;;;;4.79;78.82;95641.94;4303882;33;20288;-56
2022/04/10 06:26:26;;;;;;;3.90;3.53;;;;;;;4.64;79.16;95653.09;4314978;33;20309;-54
2022/04/10 06:28:56;;;;;;;3.40;3.10;;;;;;;4.63;78.96;95656.78;4322706;32;20347;-54
2022/04/10 06:31:26;;;;;;;3.47;3.17;;;;;;;4.71;78.96;95658.97;4343028;32;20286;-54
2022/04/10 06:33:56;;;;;;;3.70;3.37;;;;;;;4.71;79.09;95658.97;4337328;32;20311;-55
2022/04/10 06:36:28;;;;;;;3.93;3.60;;;;;;;4.69;79.66;95668.94;4311950;33;20296;-56
2022/04/10 06:38:54;;;;;;;5.10;3.90;;;;;;;4.74;79.88;95661.09;4343448;32;20414;-56
2022/04/10 06:41:27;;;;;;;3.80;3.10;;;;;;;4.61;80.96;95676.44;4349850;32;20293;-56
2022/04/10 06:43:52;;;;;;;4.73;3.63;;;;;;;4.54;81.22;95674.03;4291531;32;20398;-56
2022/04/10 06:46:43;;;;;;;5.90;3.60;;;;;;;4.60;81.51;95667.78;4316023;33;20302;-55
2022/04/10 06:49:12;;;;;;;3.67;3.40;;;;;;;4.65;81.47;95678.34;4334355;32;20197;-57
2022/04/10 06:51:39;;;;;;;4.40;3.40;;;;;;;4.61;81.09;95672.00;4345359;32;20289;-56
2022/04/10 06:54:07;;;;;;;4.03;3.63;;;;;;;4.68;81.18;95677.06;4327708;32;20320;-56
2022/04/10 06:56:38;;;;;;;3.60;3.30;;;;;;;4.82;80.87;95673.00;4360226;32;20341;-56
2022/04/10 06:59:07;;;;;;;4.73;3.70;;;;;;;4.92;79.90;95677.56;4340665;32;20324;-56
2022/04/10 07:01:33;;;;;;;4.20;3.60;;;;;;;4.81;80.02;95687.16;4348524;32;20300;-55
2022/04/10 07:04:00;;;;;;;4.10;3.60;;;;;;;4.88;79.82;95679.87;4347149;32;20292;-55
2022/04/10 07:06:37;;;;;;;4.53;3.47;;;;;;;4.76;80.37;95690.56;4347044;32;20223;-55
2022/04/10 07:09:05;;;;;;;3.77;3.47;;;;;;;4.72;80.64;95689.47;4341863;32;20297;-55
2022/04/10 07:11:33;;;;;;;4.20;3.80;;;;;;;4.95;80.25;95688.38;4344876;32;20347;-52
2022/04/10 07:13:59;;;;;;;3.97;3.57;;;;;;;4.93;80.16;95690.47;4331927;32;20308;-56
2022/04/10 07:16:39;;;;;;;4.03;3.63;;;;;;;4.94;78.73;95696.50;4344220;32;20297;-56
2022/04/10 07:19:06;;;;;;;3.80;3.40;;;;;;;4.96;79.11;95694.44;4352871;32;20350;-56
2022/04/10 07:24:17;;;;;;;3.83;3.57;;;;;;;5.10;78.30;95680.63;4359542;32;20323;-54
2022/04/10 07:26:42;;;;;;;4.43;3.80;;;;;;;5.05;78.76;95690.28;4350842;32;20303;-54
2022/04/10 07:29:12;;;;;;;4.17;3.87;;;;;;;5.23;78.41;95692.56;4331687;32;20290;-55
2022/04/10 07:31:40;;;;;;;4.90;4.50;;;;;;;5.37;77.27;95691.12;4361275;32;20244;-56
2022/04/10 07:34:07;;;;;;;4.03;3.70;;;;;;;5.36;76.36;95697.44;4321354;32;20309;-54
2022/04/10 07:36:33;;;;;;;4.50;4.13;;;;;;;5.31;77.29;95700.00;4332215;32;20306;-60
2022/04/10 07:39:00;;;;;;;4.73;4.33;;;;;;;5.41;75.61;95696.66;4335638;32;20337;-56
2022/04/10 07:41:28;;;;;;;3.90;3.60;;;;;;;5.57;74.44;95697.59;4351564;32;20190;-55
2022/04/10 07:43:56;;;;;;;6.03;4.10;;;;;;;5.56;74.47;95693.34;4363918;32;20391;-56
2022/04/10 07:49:19;;;;;;;4.30;4.00;;;;;;;5.47;72.98;95709.59;4333258;32;20404;-55
2022/04/10 07:51:46;;;;;;;3.80;3.60;;;;;;;5.75;72.44;95708.50;4349106;32;20316;-52
2022/04/10 07:54:12;;;;;;;4.63;4.27;;;;;;;5.82;70.73;95708.25;4328609;32;20290;-56
2022/04/10 07:56:39;;;;;;;4.43;4.13;;;;;;;5.86;70.65;95706.72;4354156;32;20285;-56
2022/04/10 07:59:06;;;;;;;4.33;4.03;;;;;;;5.84;70.87;95708.81;4324686;32;20184;-57
2022/04/10 08:01:33;;;;;;;4.53;3.97;;;;;;;5.81;68.91;95714.59;4339639;32;20285;-56
2022/04/10 08:04:00;;;;;;;4.30;3.90;;;;;;;5.93;68.93;95715.22;4351623;32;20342;-56
2022/04/10 08:06:28;;;;;;;4.97;4.33;;;;;;;6.08;69.97;95714.50;4358250;32;20280;-53
2022/04/10 08:08:55;;;;;;;4.20;3.77;;;;;;;6.07;69.78;95728.72;4359428;32;20377;-56
2022/04/10 08:11:21;;;;;;;3.80;3.50;;;;;;;5.97;67.77;95721.56;4330969;32;20298;-55
2022/04/10 08:13:48;;;;;;;3.33;3.13;;;;;;;6.08;66.97;95733.75;4328678;32;20321;-57
2022/04/10 08:16:32;;;;;;;3.33;3.13;;;;;;;6.06;67.21;95732.41;4339244;32;20301;-54
2022/04/10 08:18:57;;;;;;;3.43;3.13;;;;;;;6.04;68.02;95727.41;4364538;32;20288;-54
2022/04/10 08:21:23;;;;;;;3.73;3.40;;;;;;;6.10;66.15;95722.97;4361007;32;20378;-55
2022/04/10 08:23:48;;;;;;;3.90;2.77;;;;;;;6.03;63.87;95733.72;4350436;32;20202;-56
2022/04/10 08:26:28;;;;;;;3.50;2.80;;;;;;;6.03;62.18;95730.28;4358276;32;20232;-56
2022/04/10 08:28:53;;;;;;;3.23;3.03;;;;;;;6.18;61.79;95725.13;4322831;32;20268;-57
2022/04/10 08:31:23;;;;;;;4.57;2.80;;;;;;;6.25;62.08;95716.97;4311661;32;20353;-57
2022/04/10 08:33:51;;;;;;;2.80;2.60;;;;;;;6.50;62.58;95730.28;4322539;32;20205;-57
2022/04/10 08:36:32;;;;;;;3.33;3.07;;;;;;;6.60;60.24;95730.34;4326656;32;20319;-57
2022/04/10 08:38:58;;;;;;;4.07;3.00;;;;;;;6.39;59.97;95728.66;4339915;32;20276;-56
2022/04/10 08:41:40;;;;;;;3.07;2.83;;;;;;;6.49;60.18;95728.69;4309395;32;20369;-54
2022/04/10 08:44:05;;;;;;;3.33;2.80;;;;;;;6.22;61.29;95734.09;4323496;32;20199;-61
2022/04/10 08:46:35;;;;;;;3.77;3.10;;;;;;;6.19;60.76;95727.50;4313036;32;20294;-56
2022/04/10 08:49:01;;;;;;;3.33;3.03;;;;;;;6.12;61.72;95745.38;4345236;32;20184;-55
2022/04/10 08:51:29;;;;;;;2.60;2.40;;;;;;;5.89;62.07;95748.37;4314889;32;20289;-57
2022/04/10 08:53:55;;;;;;;2.40;2.30;;;;;;;6.02;61.78;95752.41;4326752;32;20223;-56
2022/04/10 08:56:25;;;;;;;2.60;2.40;;;;;;;5.84;63.96;95758.81;4307646;32;20353;-56
2022/04/10 08:58:51;;;;;;;3.40;2.50;;;;;;;5.64;66.15;95770.00;4321845;32;20285;-57
2022/04/10 09:01:35;;;;;;;2.40;2.10;;;;;;;5.36;67.35;95762.38;4332867;32;20300;-51
2022/04/10 09:04:02;;;;;;;3.13;2.57;;;;;;;5.52;66.93;95758.84;4327542;32;20359;-57
2022/04/10 09:06:29;;;;;;;2.77;2.57;;;;;;;5.39;65.20;95767.94;4352454;32;20286;-56
2022/04/10 09:09:16;;;;;;;2.97;2.77;;;;;;;5.50;66.12;95759.09;4324809;32;20380;-57
2022/04/10 09:11:43;;;;;;;3.37;3.03;;;;;;;5.71;66.59;95761.88;4311842;32;20341;-56
2022/04/10 09:14:10;;;;;;;3.57;2.97;;;;;;;5.78;64.73;95758.00;4302985;32;20294;-54
2022/04/10 09:16:36;;;;;;;2.50;2.30;;;;;;;5.90;62.67;95757.06;4324853;32;20277;-56
2022/04/10 09:19:08;;;;;;;2.60;2.17;;;;;;;6.17;62.31;95755.13;4334415;32;20325;-58
2022/04/10 09:21:39;;;;;;;2.40;2.30;;;;;;;6.28;58.25;95748.06;4325137;32;20229;-62
2022/04/10 09:24:15;;;;;;;1.90;1.80;;;;;;;6.50;57.47;95740.81;4329261;32;20285;-58
2022/04/10 09:26:56;;;;;;;4.73;2.23;;;;;;;6.55;53.68;95749.53;4331977;32;20323;-58
2022/04/10 09:29:24;;;;;;;2.10;1.90;;;;;;;6.59;54.84;95752.47;4357783;32;20289;-55
2022/04/10 09:31:58;;;;;;;2.13;1.63;;;;;;;6.60;52.83;95748.78;4293943;32;20350;-58
2022/04/10 09:34:26;;;;;;;3.27;1.77;;;;;;;6.70;53.02;95751.44;4343429;32;20401;-57
2022/04/10 09:37:03;;;;;;;2.23;1.97;;;;;;;6.86;52.02;95733.81;4350545;32;20311;-55
2022/04/10 09:39:37;;;;;;;1.70;1.60;;;;;;;6.69;50.91;95744.59;4341377;32;20301;-57
2022/04/10 09:42:12;;;;;;;2.53;1.97;;;;;;;6.79;51.91;95739.38;4310078;32;20316;-57
2022/04/10 09:44:40;;;;;;;2.20;2.00;;;;;;;6.73;51.66;95729.84;4325517;32;20306;-58
2022/04/10 09:47:26;;;;;;;2.00;1.77;;;;;;;6.77;53.95;95746.72;4306455;32;20302;-54
2022/04/10 09:50:08;;;;;;;4.33;2.77;;;;;;;7.15;51.53;95734.97;4303229;33;20328;-57
2022/04/10 09:52:38;;;;;;;2.17;2.00;;;;;;;7.42;50.60;95741.88;4301384;33;20294;-56
2022/04/10 09:55:07;;;;;;;2.00;1.60;;;;;;;7.58;49.69;95731.06;4304079;33;20287;-56
2022/04/10 09:57:34;;;;;;;1.90;1.80;;;;;;;7.59;49.87;95731.84;4340349;33;20286;-54
2022/04/10 10:00:03;;;;;;;2.00;1.70;;;;;;;7.66;48.75;95739.53;4324375;33;20324;-56
2022/04/10 10:02:29;;;;;;;1.87;1.73;;;;;;;7.72;49.60;95736.59;4298195;33;20336;-53
2022/04/10 10:04:58;;;;;;;2.27;1.60;;;;;;;7.53;49.00;95732.91;4323685;33;20299;-54
2022/04/10 10:07:26;;;;;;;1.70;1.60;;;;;;;7.55;49.51;95731.59;4343530;33;20373;-57
2022/04/10 10:09:53;;;;;;;1.97;1.70;;;;;;;7.54;49.71;95722.06;4329725;33;20294;-56
2022/04/10 10:12:27;;;;;;;2.20;1.90;;;;;;;7.89;49.56;95716.00;4342681;33;20304;-54
2022/04/10 10:14:53;;;;;;;1.50;1.40;;;;;;;7.98;50.13;95721.53;4317274;33;20332;-55
2022/04/10 10:17:26;;;;;;;2.57;2.00;;;;;;;8.04;48.12;95722.31;4298236;33;20353;-57
2022/04/10 10:19:52;;;;;;;1.60;1.50;;;;;;;8.22;47.92;95708.53;4316223;33;20286;-55
2022/04/10 10:22:26;;;;;;;2.17;2.07;;;;;;;8.09;48.13;95723.09;4303747;33;20282;-57
2022/04/10 10:25:04;;;;;;;1.33;1.23;;;;;;;7.89;48.07;95717.84;4302382;33;20297;-55
2022/04/10 10:27:49;;;;;;;4.43;4.13;;;;;;;7.90;48.41;95727.34;4312074;33;20293;-57
2022/04/10 10:30:52;;;;;;;3.20;2.63;;;;;;;7.80;48.81;95722.88;4321969;32;20335;-56
2022/04/10 10:33:22;;;;;;;2.27;2.07;;;;;;;7.52;49.00;95747.16;4325733;32;20282;-56
2022/04/10 10:35:57;;;;;;;1.70;1.60;;;;;;;7.49;49.40;95732.63;4298548;32;20345;-56
2022/04/10 10:38:25;;;;;;;1.70;1.60;;;;;;;7.30;49.85;95731.56;4327981;32;20289;-57
2022/04/10 10:41:07;;;;;;;2.27;1.90;;;;;;;7.27;48.43;95732.09;4295546;33;20289;-57
2022/04/10 10:43:34;;;;;;;2.10;1.53;;;;;;;7.33;48.87;95730.25;4310514;32;20313;-57
2022/04/10 10:46:01;;;;;;;1.70;1.60;;;;;;;7.47;49.79;95724.22;4347304;32;20289;-56
2022/04/10 10:48:56;;;;;;;3.73;1.77;;;;;;;7.50;50.19;95725.50;4354205;32;20327;-55
2022/04/10 10:51:29;;;;;;;3.30;2.10;;;;;;;7.50;50.21;95728.13;4352215;32;20289;-57
2022/04/10 10:54:00;;;;;;;1.57;1.40;;;;;;;7.66;48.41;95721.03;4361917;32;20384;-58
2022/04/10 10:56:58;;;;;;;1.70;1.50;;;;;;;7.85;47.35;95727.38;4344003;32;20305;-56
2022/04/10 10:59:39;;;;;;;1.90;1.50;;;;;;;8.01;46.61;95712.28;4359697;32;20314;-55
2022/04/10 11:02:10;;;;;;;1.83;1.43;;;;;;;7.97;44.84;95722.59;4319368;32;20301;-58
2022/04/10 11:04:52;;;;;;;1.70;1.57;;;;;;;7.91;44.37;95721.78;4331369;32;20289;-57
2022/04/10 11:07:24;;;;;;;1.17;1.13;;;;;;;8.00;45.08;95715.97;4349286;32;20318;-56
2022/04/10 11:10:28;;;;;;;2.67;1.47;;;;;;;7.90;45.01;95719.41;4319844;32;20308;-58
2022/04/10 11:13:06;;;;;;;1.57;1.20;;;;;;;7.83;45.11;95724.19;4332325;32;20465;-57
2022/04/10 11:15:54;;;;;;;1.00;1.00;;;;;;;7.83;46.41;95729.47;4347800;32;20293;-57
2022/04/10 11:18:29;;;;;;;1.30;1.30;;;;;;;7.53;45.66;95728.41;4316322;32;20287;-55
2022/04/10 11:20:58;;;;;;;2.87;1.33;;;;;;;7.47;46.89;95726.84;4357497;32;20292;-56
2022/04/10 11:23:34;;;;;;;1.60;1.23;;;;;;;7.70;47.13;95735.28;4287547;32;20311;-57
2022/04/10 11:26:07;;;;;;;1.63;1.20;;;;;;;7.68;46.45;95727.63;4339581;32;20366;-57
2022/04/10 11:29:09;;;;;;;2.37;1.50;;;;;;;7.66;46.07;95726.31;4319500;32;20298;-56
2022/04/10 11:32:15;;;;;;;2.60;1.50;;;;;;;7.61;45.57;95728.94;4345993;32;20293;-57
2022/04/10 11:34:42;;;;;;;1.43;1.33;;;;;;;7.54;47.37;95734.47;4340294;32;20302;-57
2022/04/10 11:40:33;;;;;;;2.17;2.07;;;;;;;7.32;53.11;95753.19;4349549;32;20352;-55
2022/04/10 11:43:20;;;;;;;2.20;2.03;;;;;;;6.91;60.83;95783.94;4336422;32;20298;-55
2022/04/10 11:45:55;;;;;;;2.47;1.97;;;;;;;6.71;64.55;95789.94;4346094;32;20284;-57
2022/04/10 11:48:33;;;;;;;3.37;2.60;;;;;;;6.43;67.65;95804.31;4362471;32;20280;-55
2022/04/10 11:51:11;;;;;;;2.50;2.40;;;;;;;6.31;67.38;95787.09;4352417;32;20436;-56
2022/04/10 11:53:37;;;;;;;2.07;1.97;;;;;;;6.15;69.96;95802.00;4344450;32;20320;-57
2022/04/10 11:56:11;;;;;;;2.53;2.33;;;;;;;6.32;70.58;95791.31;4317764;32;20301;-54
2022/04/10 11:58:38;;;;;;;2.20;2.10;;;;;;;6.33;70.36;95792.91;4350717;32;20340;-58
2022/04/10 12:01:07;;;;;;;2.20;2.10;;;;;;;6.10;70.55;95780.91;4359671;32;20311;-54
2022/04/10 12:03:35;;;;;;;2.57;2.17;;;;;;;6.08;70.46;95783.00;4341146;32;20365;-56
2022/04/10 12:06:03;;;;;;;2.10;2.00;;;;;;;6.17;69.52;95784.91;4338861;32;20301;-57
2022/04/10 12:08:31;;;;;;;3.43;1.90;;;;;;;6.41;68.69;95781.88;4345341;32;20309;-58